Latest Weather Observations for Charles Point

IDD60901

Issued at 10:21 pm CST Tuesday 26 September 2017 (issued every 10 minutes, with the page automatically refreshed every 10 minutes)

About weather observations | Map of Darwin area stations | Latest observations for Darwin area | Other Formats
Station Details ID: 014031 Name: CHARLES POINT Lat: -12.39 Lon: 130.63 Height: 14.0 m
Data from the previous 72 hours. | See also: Recent months for locations in Northern Territory
Date/Time
CST
Temp
°C
App
Temp
°C
Dew
Point
°C
Rel
Hum
%
Delta-T
°C
Wind Press
QNH
hPa
Press
MSL
hPa
Rain since
9am
mm
Dir  Spd
km/h
Gust
km/h
Spd
kts
Gust
kts
26/10:00pm 28.2 30.2 23.6 76 3.2 NW 19 22 10 12 1011.3 1011.2 0.0
26/09:30pm 28.4 30.6 23.3 74 3.5 WNW 17 22 9 12 1011.2 1011.1 0.0
26/09:00pm 28.6 30.3 23.1 72 3.8 WNW 19 22 10 12 1010.9 1010.8 0.0
26/08:30pm 28.7 31.1 22.9 71 4.0 WNW 15 22 8 12 1010.7 1010.6 0.0
26/08:00pm 28.6 30.9 22.8 71 3.9 WNW 15 24 8 13 1010.5 1010.4 0.0
26/07:30pm 28.6 31.6 22.6 70 4.1 W 11 19 6 10 1010.1 1010.0 0.0
26/07:00pm 28.7 31.0 22.0 67 4.5 W 13 24 7 13 1010.1 1010.0 0.0
26/06:30pm 29.0 31.9 21.7 64 4.9 W 9 15 5 8 1009.9 1009.8 0.0
26/06:00pm 29.8 31.9 20.9 59 5.9 W 11 19 6 10 1009.5 1009.4 0.0
26/05:30pm 30.7 32.5 20.3 53 6.9 W 11 17 6 9 1009.4 1009.3 0.0
26/05:00pm 31.1 33.0 21.3 56 6.6 WNW 13 20 7 11 1009.3 1009.2 0.0
26/04:30pm 31.6 33.3 21.7 55 6.7 WNW 15 20 8 11 1009.4 1009.3 0.0
26/04:00pm 31.5 33.3 21.9 56 6.5 WNW 15 19 8 10 1009.6 1009.5 0.0
26/03:30pm 31.6 33.6 22.3 57 6.3 WNW 15 22 8 12 1009.8 1009.7 0.0
26/03:00pm 31.9 33.5 21.4 53 7.1 WNW 15 22 8 12 1010.1 1010.0 0.0
26/02:30pm 32.2 33.9 21.7 54 7.1 WNW 15 20 8 11 1010.6 1010.5 0.0
26/02:00pm 31.4 33.9 21.8 56 6.5 NW 11 17 6 9 1011.1 1011.0 0.0
26/01:30pm 31.1 34.1 21.9 58 6.2 NW 9 15 5 8 1011.6 1011.5 0.0
26/01:00pm 30.8 34.3 22.9 62 5.4 NW 9 15 5 8 1012.0 1011.9 0.0
26/12:30pm 30.3 33.7 22.7 64 5.2 NNW 9 13 5 7 1012.7 1012.6 0.0
26/12:00pm 30.4 34.1 23.3 66 4.9 NNW 9 13 5 7 1013.3 1013.2 0.0
26/11:30am 30.2 33.9 22.6 63 5.2 NNW 7 9 4 5 1013.6 1013.5 0.0
26/11:00am 30.0 34.1 22.9 65 4.9 NNW 6 9 3 5 1014.0 1013.9 0.0
26/10:30am 29.5 33.2 22.2 65 4.9 NNW 6 9 3 5 1014.2 1014.1 0.0
26/10:00am 29.2 33.0 22.7 68 4.4 N 7 11 4 6 1014.2 1014.1 0.0
26/09:30am 28.6 32.2 22.3 68 4.3 N 7 9 4 5 1014.2 1014.1 0.0
26/09:00am 28.4 32.1 22.6 71 3.9 N 7 13 4 7 1013.9 1013.8 -
26/08:30am 28.2 32.1 22.9 73 3.6 NNW 7 11 4 6 1013.6 1013.5 -
26/08:00am 27.8 31.1 22.5 73 3.6 NNW 9 13 5 7 1013.3 1013.2 -
26/07:30am 27.5 30.9 22.7 75 3.3 N 9 15 5 8 1012.9 1012.8 -
26/07:00am 27.3 29.6 22.7 76 3.1 N 15 19 8 10 1012.3 1012.2 -
26/06:30am 27.3 29.6 22.7 76 3.1 N 15 19 8 10 1011.8 1011.7 -
26/06:00am 27.3 29.4 22.5 75 3.2 N 15 20 8 11 1011.4 1011.3 -
26/05:30am 27.3 29.4 22.5 75 3.2 N 15 19 8 10 1011.1 1011.0 -
26/05:00am 27.3 29.1 21.8 72 3.7 N 15 19 8 10 1010.7 1010.6 -
26/04:30am 27.4 29.7 22.1 73 3.6 N 13 19 7 10 1010.3 1010.2 -
26/04:00am 27.3 29.1 22.5 75 3.2 N 17 20 9 11 1010.2 1010.1 -
26/03:30am 27.6 28.7 21.9 71 3.8 N 19 22 10 12 1010.2 1010.1 -
26/03:00am 27.6 29.3 22.3 73 3.6 N 17 20 9 11 1010.4 1010.3 0.0
26/02:30am 27.7 29.7 22.9 75 3.3 N 17 20 9 11 1010.4 1010.3 -
26/02:00am 27.6 29.6 23.0 76 3.1 N 17 20 9 11 1010.4 1010.3 -
26/01:30am 27.8 30.0 23.2 76 3.1 N 17 22 9 12 1010.5 1010.4 -
26/01:00am 27.8 30.6 23.6 78 2.9 N 15 19 8 10 1010.6 1010.5 -
26/12:30am 27.9 31.2 23.9 79 2.8 NNW 13 19 7 10 1010.9 1010.8 -
26/12:00am 28.1 31.4 23.9 78 2.9 NNW 13 17 7 9 1011.3 1011.2 -
 
Date/Time
CST
Temp
°C
App
Temp
°C
Dew
Point
°C
Rel
Hum
%
Delta-T
°C
Wind Press
QNH
hPa
Press
MSL
hPa
Rain since
9am
mm
Dir  Spd
km/h
Gust
km/h
Spd
kts
Gust
kts
25/11:30pm 28.2 31.9 23.3 75 3.4 NW 9 15 5 8 1011.5 1011.4 -
25/11:00pm 28.3 31.9 23.7 76 3.2 NW 11 19 6 10 1011.5 1011.4 -
25/10:30pm 28.4 31.5 23.5 75 3.4 NW 13 19 7 10 1011.4 1011.3 -
25/10:00pm 28.6 31.9 23.9 75 3.2 NW 13 19 7 10 1011.5 1011.4 -
25/09:30pm 28.6 31.3 23.5 74 3.5 NW 15 20 8 11 1011.2 1011.1 -
25/09:00pm 28.8 32.6 24.1 76 3.3 NW 11 20 6 11 1010.9 1010.8 0.0
25/08:30pm 28.9 32.4 24.2 76 3.3 WNW 13 17 7 9 1010.5 1010.4 -
25/08:00pm 29.3 32.5 23.7 72 3.9 WNW 13 17 7 9 1010.2 1010.1 -
25/07:30pm 29.3 32.4 23.5 71 4.0 WNW 13 17 7 9 1010.1 1010.0 -
25/07:00pm 29.2 33.8 23.2 70 4.1 W 4 6 2 3 1009.7 1009.6 -
25/06:30pm 29.5 34.0 22.2 65 4.9 W 2 7 1 4 1009.3 1009.2 -
25/06:00pm 30.0 34.0 22.7 65 5.0 WSW 6 9 3 5 1009.2 1009.1 -
25/05:30pm 30.6 33.8 23.0 64 5.2 W 11 17 6 9 1008.9 1008.8 -
25/05:00pm 31.1 34.8 23.2 63 5.4 W 9 17 5 9 1009.0 1008.9 -
25/04:30pm 30.9 33.5 23.3 64 5.2 WNW 15 22 8 12 1009.2 1009.1 -
25/04:00pm 31.1 33.3 23.2 63 5.4 WNW 17 22 9 12 1009.2 1009.1 -
25/03:30pm 31.5 33.7 23.3 61 5.7 WNW 17 24 9 13 1009.1 1009.0 -
25/03:00pm 31.6 34.0 23.7 63 5.5 WNW 17 24 9 13 1009.6 1009.5 -
25/02:30pm 31.5 33.9 23.6 63 5.5 WNW 17 22 9 12 1010.0 1009.9 -
25/10:30am - - - - - NW 7 9 4 5 1013.4 1013.3 0.0
25/10:00am - - - - - N 7 9 4 5 1013.5 1013.4 0.0
25/09:30am - - - - - NNW 6 9 3 5 1013.6 1013.5 0.0
25/09:00am - - - - - NW 6 9 3 5 1013.4 1013.3 0.0
25/08:30am - - - - - NW 6 9 3 5 1013.1 1013.0 0.0
25/08:00am - - - - - NW 6 9 3 5 1012.9 1012.8 0.0
25/07:30am - - - - - NW 2 4 1 2 1012.6 1012.5 0.0
25/07:00am - - - - - NNW 7 11 4 6 1012.2 1012.1 0.0
25/06:30am - - - - - NNW 11 15 6 8 1011.9 1011.8 0.0
25/06:00am - - - - - NNW 11 15 6 8 1011.7 1011.6 0.0
25/05:30am - - - - - NNW 13 15 7 8 1011.3 1011.2 0.0
25/05:00am - - - - - NNW 11 17 6 9 1011.1 1011.0 0.0
25/04:30am - - - - - NNW 11 17 6 9 1010.9 1010.8 0.0
25/04:00am - - - - - N 13 17 7 9 1010.7 1010.6 0.0
25/03:30am - - - - - N 17 20 9 11 1010.7 1010.6 0.0
25/03:00am - - - - - N 17 20 9 11 1010.7 1010.6 0.0
25/02:30am - - - - - N 15 20 8 11 1010.9 1010.8 0.0
25/02:00am - - - - - NNW 15 20 8 11 1011.0 1010.9 0.0
25/01:30am - - - - - NNW 15 22 8 12 1011.1 1011.0 0.0
25/01:00am - - - - - NNW 13 20 7 11 1011.1 1011.0 0.0
25/12:30am - - - - - NNW 17 24 9 13 1011.3 1011.2 0.0
25/12:00am - - - - - NNW 19 22 10 12 1011.5 1011.4 0.0
 
Date/Time
CST
Temp
°C
App
Temp
°C
Dew
Point
°C
Rel
Hum
%
Delta-T
°C
Wind Press
QNH
hPa
Press
MSL
hPa
Rain since
9am
mm
Dir  Spd
km/h
Gust
km/h
Spd
kts
Gust
kts
24/11:30pm - - - - - NNW 17 26 9 14 1011.6 1011.5 0.0
24/11:00pm - - - - - NW 15 24 8 13 1011.6 1011.5 0.0
24/10:30pm - - - - - NW 15 22 8 12 1011.6 1011.5 0.0
24/10:00pm - - - - - NW 15 20 8 11 1011.5 1011.4 0.0
24/09:30pm - - - - - WNW 15 19 8 10 1011.4 1011.3 0.0
24/09:00pm - - - - - WNW 15 20 8 11 1011.1 1011.0 0.0
24/08:30pm - - - - - WNW 13 19 7 10 1010.6 1010.5 0.0
24/08:00pm - - - - - WNW 13 19 7 10 1010.3 1010.2 0.0
24/07:30pm - - - - - WNW 11 17 6 9 1010.0 1009.9 0.0
24/07:00pm - - - - - WNW 13 17 7 9 1009.8 1009.7 0.0
24/06:30pm - - - - - WNW 13 17 7 9 1009.4 1009.3 0.0
24/06:00pm - - - - - WNW 13 17 7 9 1009.1 1009.0 0.0
24/05:30pm - - - - - WNW 11 13 6 7 1009.0 1008.9 0.0
24/05:00pm - - - - - WNW 9 15 5 8 1008.8 1008.7 0.0
24/04:30pm - - - - - WNW 11 15 6 8 1008.8 1008.7 0.0
24/04:00pm - - - - - WNW 11 17 6 9 1008.9 1008.8 0.0
24/03:30pm - - - - - W 13 19 7 10 1009.1 1009.0 0.0
24/03:00pm - - - - - WNW 13 20 7 11 1009.5 1009.4 0.0
24/02:30pm - - - - - NW 11 19 6 10 1009.8 1009.7 0.0
24/02:00pm - - - - - NW 13 19 7 10 1010.2 1010.1 0.0
24/01:30pm - - - - - NW 11 17 6 9 1010.6 1010.5 0.0
24/01:00pm - - - - - NW 13 17 7 9 1011.1 1011.0 0.0
24/12:30pm - - - - - NW 11 17 6 9 1011.6 1011.5 0.0
24/12:00pm - - - - - NW 11 15 6 8 1012.0 1011.9 0.0
24/11:30am - - - - - NW 7 13 4 7 1012.2 1012.1 0.0
24/11:00am - - - - - NNW 7 9 4 5 1012.5 1012.4 0.0
24/10:30am - - - - - N 6 9 3 5 1012.8 1012.7 0.0
24/10:00am - - - - - N 7 9 4 5 1013.2 1013.1 0.0
24/09:30am - - - - - N 4 6 2 3 1013.4 1013.3 0.0
24/09:00am - - - - - N 4 6 2 3 1013.3 1013.2 0.0
24/08:30am - - - - - CALM 0 2 0 1 1013.2 1013.1 0.0
24/08:00am - - - - - CALM 0 4 0 2 1013.0 1012.9 0.0
24/07:30am - - - - - CALM 0 0 0 0 1012.6 1012.5 0.0
24/07:00am - - - - - N 4 7 2 4 1012.4 1012.3 0.0
24/06:30am - - - - - CALM 0 0 0 0 1012.2 1012.1 0.0
24/06:00am - - - - - CALM 0 2 0 1 1011.9 1011.8 0.0
24/05:30am - - - - - N 7 9 4 5 1011.8 1011.7 0.0
24/05:00am - - - - - N 7 11 4 6 1011.6 1011.5 0.0
24/04:30am - - - - - N 9 13 5 7 1011.4 1011.3 0.0
24/04:00am - - - - - NNW 9 13 5 7 1011.4 1011.3 0.0
24/03:30am - - - - - NNW 7 13 4 7 1011.4 1011.3 0.0
24/03:00am - - - - - NW 9 11 5 6 1011.5 1011.4 0.0
24/02:30am - - - - - NW 7 13 4 7 1011.6 1011.5 0.0
24/02:00am - - - - - NNW 13 19 7 10 1011.8 1011.7 0.0
24/01:30am - - - - - NNW 9 17 5 9 1011.9 1011.8 0.0
24/01:00am - - - - - NNW 13 19 7 10 1012.1 1012.0 0.0
24/12:30am - - - - - NW 13 20 7 11 1012.2 1012.1 0.0
24/12:00am - - - - - NW 13 20 7 11 1012.5 1012.4 0.0
 
Date/Time
CST
Temp
°C
App
Temp
°C
Dew
Point
°C
Rel
Hum
%
Delta-T
°C
Wind Press
QNH
hPa
Press
MSL
hPa
Rain since
9am
mm
Dir  Spd
km/h
Gust
km/h
Spd
kts
Gust
kts
23/11:30pm - - - - - NW 15 20 8 11 1012.8 1012.7 0.0
23/11:00pm - - - - - NW 17 22 9 12 1012.7 1012.6 0.0
23/10:30pm - - - - - NW 15 22 8 12 1012.7 1012.6 0.0

Latest Capital City Observations: Canberra | Sydney | Melbourne | Brisbane | Adelaide | Perth | Hobart | Darwin

Other Formats:

Comma delimited format used in spreadsheet applications
http://www.bom.gov.au/fwo/IDD60901/IDD60901.99510.axf

JavaScript Object Notation format (JSON) in row-major order
http://www.bom.gov.au/fwo/IDD60901/IDD60901.99510.json